Alexis Creek, Canada
Current Conditions -  °F | °C
As of 10:00 PM on Saturday 22 Nov 2014 (Local Time) from CYWL Reporting Station
Overcast Overcast  
Wind Chill: 21°   Ceiling: 6000
Heat Index: 30°   Visibility: 15mi
Dew Point: 25°   Wind: 10mph
Humidity: 80%   Direction: 110°ESE
Pressure: 29.78"   Gusts: NA
Location:  52.08°N, 123.28°W
Report Text: CYWL 230600Z 11009KT 15SM OVC060 M01/M04 A2978 RMK SC8 SLP120
Loading
Personal Weather Stations






























Interactive Weather Map New forecast layout! Learn more

10-Day Weather Forecast

Advertisements
Track Severe Weather on mobile